createdAt,value
2019-03-09T00:01:50.364Z,100630.83
2019-03-09T00:04:20.849Z,100629.88
2019-03-09T00:06:51.609Z,100625.41
2019-03-09T00:09:22.665Z,100623.09
2019-03-09T00:11:53.294Z,100620.94
2019-03-09T00:14:23.957Z,100615.91
2019-03-09T00:16:54.581Z,100610.89
2019-03-09T00:19:26.356Z,100614.25
2019-03-09T00:21:57.115Z,100609.61
2019-03-09T00:24:42.171Z,100613.22
2019-03-09T00:27:29.519Z,100615.17
2019-03-09T00:29:59.904Z,100604.95
2019-03-09T00:32:30.433Z,100613.97
2019-03-09T00:35:01.166Z,100618.00
2019-03-09T00:37:31.822Z,100612.19
2019-03-09T00:40:03.624Z,100607.63
2019-03-09T00:42:34.219Z,100604.11
2019-03-09T00:45:05.110Z,100600.83
2019-03-09T00:47:36.043Z,100603.83
2019-03-09T00:50:08.477Z,100602.13
2019-03-09T00:52:40.607Z,100602.13
2019-03-09T00:55:12.459Z,100602.23
2019-03-09T00:57:43.035Z,100601.78
2019-03-09T01:00:19.282Z,100598.77
2019-03-09T01:02:51.207Z,100604.38
2019-03-09T01:05:22.511Z,100604.00
2019-03-09T01:07:53.283Z,100609.97
2019-03-09T01:10:24.091Z,100598.97
2019-03-09T01:12:54.767Z,100595.42
2019-03-09T01:15:25.604Z,100595.42
2019-03-09T01:17:56.604Z,100601.39
2019-03-09T01:20:27.088Z,100599.53
2019-03-09T01:22:58.108Z,100597.28
2019-03-09T01:25:28.709Z,100601.20
2019-03-09T01:27:59.555Z,100593.95
2019-03-09T01:30:30.249Z,100596.56
2019-03-09T01:33:01.501Z,100594.60
2019-03-09T01:35:31.978Z,100594.31
2019-03-09T01:38:03.059Z,100590.11
2019-03-09T01:40:34.061Z,100595.03
2019-03-09T01:43:05.008Z,100591.87
2019-03-09T01:45:35.819Z,100594.44
2019-03-09T01:48:07.000Z,100590.63
2019-03-09T01:50:38.129Z,100599.70
2019-03-09T01:53:10.180Z,100601.56
2019-03-09T01:55:40.956Z,100604.83
2019-03-09T01:58:11.870Z,100609.20
2019-03-09T02:00:42.772Z,100609.22
2019-03-09T02:03:14.193Z,100609.22
2019-03-09T02:05:45.011Z,100608.01
2019-03-09T02:08:15.682Z,100610.72
2019-03-09T02:10:46.273Z,100614.05
2019-03-09T02:13:17.034Z,100618.62
2019-03-09T02:15:48.402Z,100620.58
2019-03-09T02:18:19.066Z,100622.05
2019-03-09T02:20:49.901Z,100620.70
2019-03-09T02:23:20.878Z,100621.80
2019-03-09T02:25:51.460Z,100619.07
2019-03-09T02:28:22.431Z,100630.16
2019-03-09T02:30:53.345Z,100631.33
2019-03-09T02:33:24.213Z,100626.31
2019-03-09T02:35:54.946Z,100631.81
2019-03-09T02:38:44.669Z,100640.66
2019-03-09T02:41:15.692Z,100633.91
2019-03-09T02:43:46.364Z,100642.70
2019-03-09T02:46:17.058Z,100637.83
2019-03-09T02:48:47.896Z,100641.11
2019-03-09T02:51:18.679Z,100645.34
2019-03-09T02:53:49.997Z,100646.58
2019-03-09T02:56:20.609Z,100639.92
2019-03-09T02:58:51.361Z,100642.43
2019-03-09T03:01:30.892Z,100643.66
2019-03-09T03:04:02.673Z,100646.58
2019-03-09T03:06:33.368Z,100657.14
2019-03-09T03:09:06.389Z,100659.01
2019-03-09T03:11:37.611Z,100658.67
2019-03-09T03:14:08.363Z,100656.61
2019-03-09T03:16:39.250Z,100657.55
2019-03-09T03:19:10.112Z,100657.88
2019-03-09T03:21:40.660Z,100660.83
2019-03-09T03:24:11.356Z,100653.67
2019-03-09T03:26:42.000Z,100650.62
2019-03-09T03:29:13.269Z,100655.61
2019-03-09T03:31:44.047Z,100655.47
2019-03-09T03:34:14.967Z,100650.87
2019-03-09T03:36:45.724Z,100653.91
2019-03-09T03:39:16.575Z,100655.97
2019-03-09T03:41:47.044Z,100650.94
2019-03-09T03:44:17.697Z,100651.42
2019-03-09T03:46:48.771Z,100659.72
2019-03-09T03:49:19.262Z,100655.31
2019-03-09T03:51:51.290Z,100654.80
2019-03-09T03:54:21.973Z,100655.81
2019-03-09T03:56:52.935Z,100657.01
2019-03-09T03:59:23.928Z,100654.73
2019-03-09T04:01:54.781Z,100660.51
2019-03-09T04:04:26.862Z,100657.55
2019-03-09T04:06:57.898Z,100664.38
2019-03-09T04:09:28.651Z,100671.35
2019-03-09T04:11:59.857Z,100669.47
2019-03-09T04:14:31.808Z,100667.28
2019-03-09T04:17:03.836Z,100668.01
2019-03-09T04:19:34.756Z,100674.78
2019-03-09T04:22:06.698Z,100675.75
2019-03-09T04:24:40.747Z,100674.47
2019-03-09T04:27:13.705Z,100673.88
2019-03-09T04:29:44.409Z,100675.45
2019-03-09T04:32:16.190Z,100679.32
2019-03-09T04:34:46.907Z,100684.10
2019-03-09T04:37:17.741Z,100684.34
2019-03-09T04:39:48.690Z,100683.03
2019-03-09T04:42:20.869Z,100683.32
2019-03-09T04:44:54.495Z,100684.83
2019-03-09T04:47:25.139Z,100691.72
2019-03-09T04:49:56.988Z,100688.57
2019-03-09T04:52:27.840Z,100686.11
2019-03-09T04:54:58.772Z,100693.04
2019-03-09T04:57:30.516Z,100685.34
2019-03-09T05:00:01.238Z,100679.72
2019-03-09T05:02:32.422Z,100689.80
2019-03-09T05:05:03.114Z,100688.83
2019-03-09T05:07:39.029Z,100694.04
2019-03-09T05:10:31.165Z,100690.27
2019-03-09T05:13:08.635Z,100697.47
2019-03-09T05:15:39.379Z,100696.77
2019-03-09T05:18:10.054Z,100694.06
2019-03-09T05:20:40.790Z,100697.91
2019-03-09T05:23:11.468Z,100698.23
2019-03-09T05:25:42.102Z,100700.84
2019-03-09T05:28:12.946Z,100698.86
2019-03-09T05:30:49.620Z,100698.76
2019-03-09T05:33:20.510Z,100711.72
2019-03-09T05:35:51.378Z,100714.97
2019-03-09T05:38:22.502Z,100715.48
2019-03-09T05:40:53.370Z,100717.43
2019-03-09T05:43:24.382Z,100718.45
2019-03-09T05:45:55.177Z,100723.47
2019-03-09T05:48:26.050Z,100722.95
2019-03-09T05:50:56.755Z,100725.78
2019-03-09T05:53:27.521Z,100732.39
2019-03-09T05:55:58.145Z,100741.22
2019-03-09T05:58:29.354Z,100748.20
2019-03-09T06:01:00.405Z,100751.11
2019-03-09T06:03:32.078Z,100758.43
2019-03-09T06:06:16.874Z,100755.61
2019-03-09T06:08:48.132Z,100755.87
2019-03-09T06:11:18.989Z,100761.28
2019-03-09T06:13:49.802Z,100754.54
2019-03-09T06:16:20.339Z,100773.34
2019-03-09T06:18:50.955Z,100765.00
2019-03-09T06:21:21.906Z,100775.72
2019-03-09T06:23:53.004Z,100784.01
2019-03-09T06:26:23.703Z,100775.47
2019-03-09T06:28:54.454Z,100786.98
2019-03-09T06:31:25.648Z,100792.68
2019-03-09T06:33:58.066Z,100797.00
2019-03-09T06:36:59.883Z,100802.32
2019-03-09T06:39:42.278Z,100796.78
2019-03-09T06:42:42.568Z,100792.20
2019-03-09T06:45:14.802Z,100789.94
2019-03-09T06:47:45.603Z,100788.11
2019-03-09T06:50:18.097Z,100785.69
2019-03-09T06:52:48.829Z,100793.55
2019-03-09T06:55:19.852Z,100788.91
2019-03-09T06:57:50.506Z,100795.04
2019-03-09T07:00:41.787Z,100794.34
2019-03-09T07:03:13.089Z,100793.42
2019-03-09T07:05:43.832Z,100806.72
2019-03-09T07:08:14.446Z,100810.88
2019-03-09T07:10:45.499Z,100810.84
2019-03-09T07:13:16.471Z,100810.64
2019-03-09T07:15:48.077Z,100817.26
2019-03-09T07:18:20.518Z,100813.70
2019-03-09T07:20:51.250Z,100809.20
2019-03-09T07:23:22.016Z,100808.55
2019-03-09T07:25:53.669Z,100812.16
2019-03-09T07:28:24.780Z,100807.70
2019-03-09T07:30:55.701Z,100807.73
2019-03-09T07:33:26.729Z,100805.80
2019-03-09T07:35:57.364Z,100810.97
2019-03-09T07:38:28.414Z,100806.83
2019-03-09T07:40:59.012Z,100807.52
2019-03-09T07:43:30.570Z,100805.69
2019-03-09T07:46:01.593Z,100810.02
2019-03-09T07:48:32.520Z,100807.14
2019-03-09T07:51:03.393Z,100804.03
2019-03-09T07:53:34.130Z,100810.59
2019-03-09T07:56:04.933Z,100792.55
2019-03-09T07:58:35.531Z,100794.21
2019-03-09T08:01:06.243Z,100791.56
2019-03-09T08:03:37.206Z,100786.77
2019-03-09T08:06:08.050Z,100791.81
2019-03-09T08:08:38.859Z,100785.39
2019-03-09T08:11:12.273Z,100781.55
2019-03-09T08:13:43.271Z,100783.02
2019-03-09T08:16:13.898Z,100791.14
2019-03-09T08:18:45.387Z,100781.88
2019-03-09T08:21:16.391Z,100776.91
2019-03-09T08:23:47.277Z,100784.47
2019-03-09T08:26:18.544Z,100788.59
2019-03-09T08:28:49.548Z,100781.11
2019-03-09T08:31:20.891Z,100790.08
2019-03-09T08:33:51.701Z,100789.85
2019-03-09T08:36:22.704Z,100787.68
2019-03-09T08:38:53.472Z,100792.64
2019-03-09T08:41:24.270Z,100797.18
2019-03-09T08:43:55.023Z,100801.61
2019-03-09T08:46:25.645Z,100794.73
2019-03-09T08:48:57.253Z,100789.69
2019-03-09T08:51:29.136Z,100790.72
2019-03-09T08:53:59.751Z,100790.75
2019-03-09T08:56:33.491Z,100793.06
2019-03-09T08:59:04.400Z,100784.87
2019-03-09T09:01:34.962Z,100789.30
2019-03-09T09:04:06.998Z,100785.23
2019-03-09T09:06:37.651Z,100790.20
2019-03-09T09:09:08.652Z,100785.34
2019-03-09T09:11:39.736Z,100779.72
2019-03-09T09:14:10.331Z,100777.81
2019-03-09T09:16:41.333Z,100779.05
2019-03-09T09:19:15.780Z,100779.02
2019-03-09T09:21:46.635Z,100772.16
2019-03-09T09:24:18.315Z,100771.88
2019-03-09T09:26:48.949Z,100774.45
2019-03-09T09:29:19.803Z,100768.61
2019-03-09T09:31:50.940Z,100775.45
2019-03-09T09:34:21.708Z,100776.26
2019-03-09T09:36:52.469Z,100765.48
2019-03-09T09:39:24.209Z,100772.59
2019-03-09T09:41:54.988Z,100774.25
2019-03-09T09:44:26.018Z,100774.65
2019-03-09T09:46:56.858Z,100764.55
2019-03-09T09:49:27.609Z,100780.28
2019-03-09T09:51:58.239Z,100767.84
2019-03-09T09:54:30.513Z,100763.38
2019-03-09T09:57:21.146Z,100764.06
2019-03-09T09:59:51.947Z,100758.42
2019-03-09T10:02:23.864Z,100768.78
2019-03-09T10:04:56.019Z,100754.88
2019-03-09T10:07:26.694Z,100765.05
2019-03-09T10:09:57.656Z,100760.56
2019-03-09T10:12:28.393Z,100768.05
2019-03-09T10:14:59.056Z,100759.09
2019-03-09T10:17:29.870Z,100761.93
2019-03-09T10:20:00.603Z,100772.22
2019-03-09T10:22:51.354Z,100754.88
2019-03-09T10:25:22.409Z,100757.55
2019-03-09T10:27:53.200Z,100753.27
2019-03-09T10:30:25.661Z,100747.31
2019-03-09T10:32:56.373Z,100755.61
2019-03-09T10:35:27.155Z,100753.48
2019-03-09T10:37:58.060Z,100756.23
2019-03-09T10:40:28.895Z,100747.78
2019-03-09T10:42:59.645Z,100741.67
2019-03-09T10:45:30.504Z,100732.70
2019-03-09T10:48:02.501Z,100728.73
2019-03-09T10:50:33.530Z,100745.02
2019-03-09T10:53:04.429Z,100729.22
2019-03-09T10:55:35.262Z,100722.08
2019-03-09T10:58:06.208Z,100717.38
2019-03-09T11:00:38.460Z,100720.57
2019-03-09T11:03:09.340Z,100718.39
2019-03-09T11:05:43.137Z,100697.11
2019-03-09T11:08:15.289Z,100709.09
2019-03-09T11:10:45.931Z,100704.88
2019-03-09T11:13:18.152Z,100707.16
2019-03-09T11:15:48.852Z,100693.34
2019-03-09T11:18:19.621Z,100685.16
2019-03-09T11:20:50.660Z,100689.00
2019-03-09T11:23:21.538Z,100680.73
2019-03-09T11:25:52.129Z,100674.34
2019-03-09T11:28:22.960Z,100671.39
2019-03-09T11:30:53.927Z,100669.39
2019-03-09T11:33:24.588Z,100660.42
2019-03-09T11:35:55.714Z,100650.28
2019-03-09T11:38:26.664Z,100649.80
2019-03-09T11:41:00.600Z,100644.95
2019-03-09T11:43:31.499Z,100648.30
2019-03-09T11:46:02.200Z,100635.98
2019-03-09T11:48:32.864Z,100632.66
2019-03-09T11:51:03.924Z,100641.41
2019-03-09T11:53:34.575Z,100634.91
2019-03-09T11:56:05.297Z,100636.08
2019-03-09T11:58:38.151Z,100639.24
2019-03-09T12:01:09.554Z,100638.52
2019-03-09T12:03:40.330Z,100622.92
2019-03-09T12:06:12.221Z,100622.16
2019-03-09T12:08:43.304Z,100628.84
2019-03-09T12:11:16.095Z,100624.36
2019-03-09T12:13:47.231Z,100626.68
2019-03-09T12:16:19.367Z,100616.06
2019-03-09T12:18:50.133Z,100616.41
2019-03-09T12:21:21.628Z,100616.70
2019-03-09T12:23:52.611Z,100609.41
2019-03-09T12:26:24.493Z,100603.08
2019-03-09T12:28:55.616Z,100600.77
2019-03-09T12:31:26.709Z,100600.41
2019-03-09T12:33:57.303Z,100599.75
2019-03-09T12:36:28.395Z,100596.08
2019-03-09T12:38:59.488Z,100589.44
2019-03-09T12:41:30.299Z,100590.94
2019-03-09T12:44:01.465Z,100583.97
2019-03-09T12:46:32.339Z,100583.45
2019-03-09T12:49:03.079Z,100575.81
2019-03-09T12:51:33.871Z,100581.45
2019-03-09T12:54:04.767Z,100583.09
2019-03-09T12:56:35.354Z,100576.64
2019-03-09T12:59:06.071Z,100581.31
2019-03-09T13:01:36.877Z,100572.84
2019-03-09T13:04:12.752Z,100570.17
2019-03-09T13:06:43.775Z,100564.54
2019-03-09T13:09:14.441Z,100576.81
2019-03-09T13:11:45.064Z,100569.18
2019-03-09T13:14:15.855Z,100568.84
2019-03-09T13:16:46.689Z,100569.51
2019-03-09T13:19:17.474Z,100566.19
2019-03-09T13:21:48.575Z,100567.20
2019-03-09T13:24:19.400Z,100565.02
2019-03-09T13:26:50.017Z,100556.73
2019-03-09T13:29:21.946Z,100555.91
2019-03-09T13:31:52.809Z,100550.25
2019-03-09T13:34:24.598Z,100560.70
2019-03-09T13:36:55.348Z,100562.87
2019-03-09T13:39:26.253Z,100564.55
2019-03-09T13:41:56.978Z,100568.84
2019-03-09T13:44:27.673Z,100563.37
2019-03-09T13:46:58.607Z,100563.23
2019-03-09T13:49:29.474Z,100558.73
2019-03-09T13:52:00.210Z,100552.59
2019-03-09T13:54:30.861Z,100547.27
2019-03-09T13:57:01.674Z,100548.78
2019-03-09T13:59:32.496Z,100550.61
2019-03-09T14:02:03.431Z,100542.48
2019-03-09T14:04:35.570Z,100553.28
2019-03-09T14:07:06.202Z,100553.61
2019-03-09T14:09:38.291Z,100544.80
2019-03-09T14:12:09.082Z,100543.48
2019-03-09T14:14:39.839Z,100545.97
2019-03-09T14:17:10.601Z,100547.97
2019-03-09T14:19:41.354Z,100537.33
2019-03-09T14:22:12.110Z,100543.95
2019-03-09T14:24:42.869Z,100536.98
2019-03-09T14:27:15.125Z,100538.14
2019-03-09T14:29:45.990Z,100539.97
2019-03-09T14:32:16.663Z,100537.28
2019-03-09T14:34:47.521Z,100540.27
2019-03-09T14:37:19.399Z,100529.98
2019-03-09T14:39:49.978Z,100545.93
2019-03-09T14:42:20.686Z,100546.58
2019-03-09T14:44:51.482Z,100552.22
2019-03-09T14:47:22.344Z,100548.70
2019-03-09T14:49:52.932Z,100544.87
2019-03-09T14:52:23.602Z,100544.22
2019-03-09T14:54:54.430Z,100544.72
2019-03-09T14:57:25.244Z,100537.73
2019-03-09T14:59:56.070Z,100539.17
2019-03-09T15:02:26.931Z,100543.42
2019-03-09T15:04:57.691Z,100542.75
2019-03-09T15:07:31.071Z,100543.69
2019-03-09T15:10:02.189Z,100550.81
2019-03-09T15:12:34.040Z,100544.34
2019-03-09T15:15:05.235Z,100547.64
2019-03-09T15:17:35.745Z,100539.65
2019-03-09T15:20:07.067Z,100551.58
2019-03-09T15:22:37.841Z,100543.27
2019-03-09T15:25:10.477Z,100542.27
2019-03-09T15:27:41.357Z,100540.91
2019-03-09T15:30:13.518Z,100539.89
2019-03-09T15:32:44.399Z,100533.19
2019-03-09T15:35:16.439Z,100541.13
2019-03-09T15:37:47.364Z,100542.34
2019-03-09T15:40:18.564Z,100543.94
2019-03-09T15:42:49.668Z,100538.78
2019-03-09T15:45:20.411Z,100539.73
2019-03-09T15:47:51.023Z,100543.50
2019-03-09T15:50:23.538Z,100543.92
2019-03-09T15:52:54.976Z,100540.91
2019-03-09T15:55:25.616Z,100535.23
2019-03-09T15:57:56.520Z,100537.59
2019-03-09T16:00:27.319Z,100543.30
2019-03-09T16:02:58.620Z,100538.03
2019-03-09T16:05:29.506Z,100536.11
2019-03-09T16:08:00.325Z,100540.48
2019-03-09T16:10:31.255Z,100538.83
2019-03-09T16:13:05.296Z,100546.08
2019-03-09T16:15:36.095Z,100545.94
2019-03-09T16:18:07.057Z,100546.87
2019-03-09T16:20:40.723Z,100550.80
2019-03-09T16:23:11.604Z,100551.22
2019-03-09T16:25:42.202Z,100551.76
2019-03-09T16:28:13.036Z,100555.36
2019-03-09T16:30:44.184Z,100558.42
2019-03-09T16:33:14.714Z,100562.64
2019-03-09T16:35:45.588Z,100561.08
2019-03-09T16:38:16.307Z,100566.91
2019-03-09T16:40:47.020Z,100558.70
2019-03-09T16:43:18.034Z,100567.44
2019-03-09T16:45:48.722Z,100564.34
2019-03-09T16:48:19.534Z,100563.02
2019-03-09T16:50:50.252Z,100571.14
2019-03-09T16:53:23.239Z,100565.66
2019-03-09T16:55:54.524Z,100566.28
2019-03-09T16:58:26.390Z,100570.83
2019-03-09T17:00:58.310Z,100568.03
2019-03-09T17:03:29.047Z,100573.97
2019-03-09T17:05:59.665Z,100557.22
2019-03-09T17:08:31.997Z,100570.55
2019-03-09T17:11:02.774Z,100570.48
2019-03-09T17:13:33.478Z,100566.72
2019-03-09T17:16:04.916Z,100569.72
2019-03-09T17:18:36.323Z,100572.41
2019-03-09T17:21:07.238Z,100578.75
2019-03-09T17:23:38.052Z,100574.57
2019-03-09T17:26:08.803Z,100571.45
2019-03-09T17:28:39.493Z,100577.36
2019-03-09T17:31:10.668Z,100574.38
2019-03-09T17:33:41.309Z,100575.19
2019-03-09T17:36:12.027Z,100581.20
2019-03-09T17:38:42.715Z,100579.17
2019-03-09T17:41:16.186Z,100577.09
2019-03-09T17:43:46.803Z,100576.82
2019-03-09T17:46:17.564Z,100580.08
2019-03-09T17:48:48.308Z,100576.96
2019-03-09T17:51:20.467Z,100580.36
2019-03-09T17:53:52.592Z,100578.42
2019-03-09T17:56:23.355Z,100575.23
2019-03-09T17:58:54.228Z,100580.16
2019-03-09T18:01:25.107Z,100576.84
2019-03-09T18:03:55.913Z,100576.14
2019-03-09T18:06:28.467Z,100581.90
2019-03-09T18:08:59.218Z,100580.16
2019-03-09T18:11:30.319Z,100580.25
2019-03-09T18:14:06.969Z,100588.73
2019-03-09T18:16:34.696Z,100580.38
2019-03-09T18:19:05.521Z,100577.23
2019-03-09T18:21:36.226Z,100574.89
2019-03-09T18:24:07.707Z,100578.34
2019-03-09T18:26:38.924Z,100565.86
2019-03-09T18:29:09.682Z,100578.48
2019-03-09T18:31:40.788Z,100572.92
2019-03-09T18:34:11.816Z,100577.53
2019-03-09T18:36:42.779Z,100574.09
2019-03-09T18:39:14.066Z,100571.70
2019-03-09T18:42:05.032Z,100574.95
2019-03-09T18:44:35.678Z,100574.45
2019-03-09T18:47:06.709Z,100585.58
2019-03-09T18:49:37.672Z,100586.42
2019-03-09T18:52:08.473Z,100578.08
2019-03-09T18:54:39.407Z,100574.06
2019-03-09T18:57:10.203Z,100570.78
2019-03-09T18:59:40.998Z,100571.83
2019-03-09T19:02:11.791Z,100575.45
2019-03-09T19:04:43.785Z,100570.09
2019-03-09T19:07:14.426Z,100571.12
2019-03-09T19:09:45.363Z,100565.14
2019-03-09T19:12:17.335Z,100566.05
2019-03-09T19:14:50.921Z,100573.88
2019-03-09T19:17:23.575Z,100577.24
2019-03-09T19:19:54.734Z,100581.70
2019-03-09T19:22:25.290Z,100578.30
2019-03-09T19:24:56.446Z,100578.85
2019-03-09T19:27:27.385Z,100581.40
2019-03-09T19:29:58.455Z,100583.70
2019-03-09T19:32:30.611Z,100582.52
2019-03-09T19:35:01.327Z,100583.56
2019-03-09T19:37:32.014Z,100580.23
2019-03-09T19:40:02.871Z,100582.95
2019-03-09T19:42:33.588Z,100578.02
2019-03-09T19:45:04.590Z,100577.41
2019-03-09T19:47:35.461Z,100584.80
2019-03-09T19:50:06.608Z,100582.56
2019-03-09T19:52:37.505Z,100586.50
2019-03-09T19:55:08.393Z,100584.31
2019-03-09T19:57:39.035Z,100591.52
2019-03-09T20:00:10.375Z,100595.98
2019-03-09T20:02:42.319Z,100584.45
2019-03-09T20:05:13.258Z,100582.66
2019-03-09T20:07:44.344Z,100589.59
2019-03-09T20:10:15.613Z,100592.13
2019-03-09T20:12:47.772Z,100597.08
2019-03-09T20:15:18.819Z,100591.64
2019-03-09T20:17:50.867Z,100583.16
2019-03-09T20:20:22.356Z,100588.08
2019-03-09T20:22:53.267Z,100583.08
2019-03-09T20:25:24.452Z,100585.45
2019-03-09T20:27:55.249Z,100583.41
2019-03-09T20:30:27.263Z,100577.21
2019-03-09T20:32:58.133Z,100582.14
2019-03-09T20:35:29.252Z,100578.16
2019-03-09T20:38:00.160Z,100578.53
2019-03-09T20:40:32.652Z,100583.41
2019-03-09T20:43:04.561Z,100581.03
2019-03-09T20:45:35.472Z,100581.84
2019-03-09T20:48:06.169Z,100575.18
2019-03-09T20:50:37.572Z,100572.87
2019-03-09T20:53:09.986Z,100570.45
2019-03-09T20:55:40.837Z,100573.84
2019-03-09T20:58:13.459Z,100569.61
2019-03-09T21:00:45.480Z,100563.23
2019-03-09T21:03:16.489Z,100560.72
2019-03-09T21:05:48.569Z,100549.66
2019-03-09T21:08:19.496Z,100543.95
2019-03-09T21:10:50.030Z,100542.64
2019-03-09T21:13:20.758Z,100540.11
2019-03-09T21:15:53.256Z,100537.48
2019-03-09T21:18:24.226Z,100544.53
2019-03-09T21:20:54.920Z,100541.16
2019-03-09T21:23:25.804Z,100532.81
2019-03-09T21:25:56.827Z,100537.41
2019-03-09T21:28:27.541Z,100527.20
2019-03-09T21:30:58.570Z,100531.95
2019-03-09T21:33:29.324Z,100532.48
2019-03-09T21:36:01.040Z,100528.56
2019-03-09T21:38:31.879Z,100526.80
2019-03-09T21:41:02.975Z,100521.20
2019-03-09T21:43:34.139Z,100523.65
2019-03-09T21:46:05.029Z,100517.80
2019-03-09T21:48:37.293Z,100521.64
2019-03-09T21:51:07.979Z,100524.33
2019-03-09T21:53:38.770Z,100514.41
2019-03-09T21:56:09.763Z,100518.11
2019-03-09T21:58:40.567Z,100517.16
2019-03-09T22:01:11.442Z,100518.46
2019-03-09T22:03:41.934Z,100511.87
2019-03-09T22:06:12.643Z,100511.87
2019-03-09T22:08:43.888Z,100510.04
2019-03-09T22:11:15.774Z,100504.52
2019-03-09T22:13:47.678Z,100498.90
2019-03-09T22:16:18.448Z,100490.55
2019-03-09T22:18:49.325Z,100514.55
2019-03-09T22:21:20.230Z,100490.55
2019-03-09T22:23:51.385Z,100490.41
2019-03-09T22:26:22.153Z,100485.94
2019-03-09T22:28:54.524Z,100486.75
2019-03-09T22:31:25.005Z,100493.04
2019-03-09T22:33:55.960Z,100491.15
2019-03-09T22:36:27.946Z,100480.31
2019-03-09T22:38:58.515Z,100479.33
2019-03-09T22:41:29.022Z,100478.29
2019-03-09T22:43:59.651Z,100480.01
2019-03-09T22:46:30.542Z,100479.16
2019-03-09T22:49:01.432Z,100474.20
2019-03-09T22:51:32.122Z,100483.48
2019-03-09T22:54:03.088Z,100485.06
2019-03-09T22:56:33.976Z,100483.72
2019-03-09T22:59:06.385Z,100484.34
2019-03-09T23:01:39.303Z,100477.81
2019-03-09T23:04:10.947Z,100481.23
2019-03-09T23:06:49.150Z,100472.20
2019-03-09T23:09:19.977Z,100466.73
2019-03-09T23:11:53.298Z,100471.20
2019-03-09T23:14:24.456Z,100465.73
2019-03-09T23:16:54.998Z,100460.02
2019-03-09T23:19:26.520Z,100449.30
2019-03-09T23:21:57.547Z,100452.61
2019-03-09T23:24:28.102Z,100450.36
2019-03-09T23:27:00.160Z,100441.88
2019-03-09T23:29:30.965Z,100446.03
2019-03-09T23:32:01.631Z,100443.40
2019-03-09T23:34:32.362Z,100436.11
2019-03-09T23:37:03.054Z,100441.25
2019-03-09T23:39:34.031Z,100440.99
2019-03-09T23:42:04.607Z,100434.08
2019-03-09T23:44:35.444Z,100430.39
2019-03-09T23:47:09.393Z,100428.62
2019-03-09T23:49:40.350Z,100429.59
2019-03-09T23:52:10.893Z,100423.63
2019-03-09T23:54:41.903Z,100425.91
2019-03-09T23:57:12.679Z,100414.56
2019-03-09T23:59:43.298Z,100416.13
